DLH075 EDDM-LGAV
Flight info
| Callsign | DLH075 |
|---|---|
| Flight time | N/A |
| Altitude | 41000 |
| Route | VAVOR3S/26L VAVOR M867 RADIZ DCT REKTI DCT NEMEK DCT ELTIB DCT PINDO DCT PIKOS UL607 XORKI |
| Aircraft | B748/H-SDE3FGHIM1M2RWXY/LB1 |
Departure
| Time | 2026-05-07 12:47 |
|---|---|
| Airport | Munich Airport (EDDM) |
Arrival
| Time | N/A |
|---|---|
| Airport | Athens Eleftherios Venizelos International Airport (LGAV) |
| Time | Latitude | Longitude | Altitude | Speed | Heading |
|---|---|---|---|---|---|
| 2026-05-07 12:22 | 48.35282 | 11.79770 | 1482 ft | 0 kts | 83° |
| 2026-05-07 12:38 | 48.35279 | 11.79741 | 1469 ft | 4 kts | 84° |
| 2026-05-07 12:38 | 48.35277 | 11.79694 | 1469 ft | 5 kts | 86° |
| 2026-05-07 12:39 | 48.35280 | 11.79643 | 1469 ft | 5 kts | 126° |
| 2026-05-07 12:39 | 48.35306 | 11.79615 | 1469 ft | 2 kts | 172° |
| 2026-05-07 12:39 | 48.35310 | 11.79615 | 1469 ft | 0 kts | 172° |
| 2026-05-07 12:41 | 48.35262 | 11.79624 | 1469 ft | 8 kts | 173° |
| 2026-05-07 12:41 | 48.35203 | 11.79635 | 1472 ft | 9 kts | 173° |
| 2026-05-07 12:41 | 48.35144 | 11.79644 | 1480 ft | 9 kts | 174° |
| 2026-05-07 12:42 | 48.35081 | 11.79654 | 1473 ft | 10 kts | 174° |
| 2026-05-07 12:42 | 48.34996 | 11.79668 | 1486 ft | 13 kts | 173° |
| 2026-05-07 12:42 | 48.34941 | 11.79677 | 1478 ft | 1 kts | 173° |
| 2026-05-07 12:42 | 48.34938 | 11.79678 | 1480 ft | 0 kts | 174° |
| 2026-05-07 12:43 | 48.34915 | 11.79681 | 1475 ft | 7 kts | 174° |
| 2026-05-07 12:43 | 48.34841 | 11.79708 | 1476 ft | 13 kts | 148° |
| 2026-05-07 12:43 | 48.34814 | 11.79841 | 1483 ft | 20 kts | 88° |
| 2026-05-07 12:43 | 48.34830 | 11.80063 | 1483 ft | 24 kts | 83° |
| 2026-05-07 12:44 | 48.34831 | 11.80312 | 1478 ft | 22 kts | 115° |
| 2026-05-07 12:44 | 48.34715 | 11.80399 | 1479 ft | 17 kts | 172° |
| 2026-05-07 12:44 | 48.34661 | 11.80409 | 1478 ft | 0 kts | 173° |
| 2026-05-07 12:46 | 48.34584 | 11.80412 | 1482 ft | 18 kts | 188° |
| 2026-05-07 12:46 | 48.34481 | 11.80307 | 1474 ft | 14 kts | 241° |
| 2026-05-07 12:46 | 48.34423 | 11.79647 | 1478 ft | 122 kts | 266° |
| 2026-05-07 12:47 | 48.34281 | 11.77920 | 1686 ft | 194 kts | 263° |
| 2026-05-07 12:47 | 48.34079 | 11.75976 | 2792 ft | 177 kts | 263° |
| 2026-05-07 12:47 | 48.33910 | 11.74017 | 3379 ft | 203 kts | 264° |
| 2026-05-07 12:47 | 48.33620 | 11.72684 | 4029 ft | 206 kts | 237° |
| 2026-05-07 12:48 | 48.32547 | 11.71234 | 5241 ft | 214 kts | 207° |
| 2026-05-07 12:48 | 48.31061 | 11.70811 | 6393 ft | 224 kts | 186° |
| 2026-05-07 12:48 | 48.28967 | 11.70887 | 7765 ft | 234 kts | 169° |
| 2026-05-07 12:48 | 48.27440 | 11.71947 | 8553 ft | 255 kts | 146° |
| 2026-05-07 12:49 | 48.26476 | 11.73107 | 8983 ft | 270 kts | 142° |
| 2026-05-07 12:49 | 48.25030 | 11.75076 | 9659 ft | 291 kts | 140° |
| 2026-05-07 12:49 | 48.23501 | 11.77129 | 10438 ft | 301 kts | 142° |
| 2026-05-07 12:49 | 48.21875 | 11.79196 | 10990 ft | 320 kts | 143° |
| 2026-05-07 12:50 | 48.20126 | 11.81403 | 11519 ft | 340 kts | 142° |
| 2026-05-07 12:50 | 48.18405 | 11.83610 | 11964 ft | 361 kts | 142° |
| 2026-05-07 12:50 | 48.16475 | 11.86101 | 12487 ft | 381 kts | 142° |
| 2026-05-07 12:50 | 48.14412 | 11.88746 | 13158 ft | 397 kts | 142° |
| 2026-05-07 12:51 | 48.12286 | 11.91461 | 14139 ft | 405 kts | 142° |
| 2026-05-07 12:51 | 48.10116 | 11.94229 | 14802 ft | 413 kts | 142° |
| 2026-05-07 12:51 | 48.07928 | 11.97024 | 15000 ft | 415 kts | 142° |
| 2026-05-07 12:51 | 48.05744 | 11.99810 | 15002 ft | 412 kts | 142° |
| 2026-05-07 12:52 | 48.03560 | 12.02588 | 14999 ft | 412 kts | 142° |
| 2026-05-07 12:52 | 48.01376 | 12.05362 | 14993 ft | 412 kts | 142° |
| 2026-05-07 12:52 | 47.99191 | 12.08136 | 15007 ft | 412 kts | 142° |
| 2026-05-07 12:52 | 47.97008 | 12.10906 | 15008 ft | 412 kts | 142° |
| 2026-05-07 12:53 | 47.94827 | 12.13669 | 15007 ft | 412 kts | 142° |
| 2026-05-07 12:53 | 47.92643 | 12.16432 | 15021 ft | 413 kts | 142° |
| 2026-05-07 12:53 | 47.90440 | 12.19206 | 15662 ft | 417 kts | 142° |
| 2026-05-07 12:53 | 47.88210 | 12.22004 | 16725 ft | 422 kts | 142° |
| 2026-05-07 12:54 | 47.85949 | 12.24844 | 17735 ft | 427 kts | 142° |
| 2026-05-07 12:54 | 47.83663 | 12.27715 | 18602 ft | 433 kts | 142° |
| 2026-05-07 12:54 | 47.81344 | 12.30623 | 19411 ft | 438 kts | 142° |
| 2026-05-07 12:54 | 47.79003 | 12.33552 | 20198 ft | 442 kts | 142° |
| 2026-05-07 12:55 | 47.76636 | 12.36511 | 20943 ft | 447 kts | 142° |
| 2026-05-07 12:55 | 47.74246 | 12.39496 | 21665 ft | 451 kts | 142° |
| 2026-05-07 12:55 | 47.71837 | 12.42500 | 22354 ft | 455 kts | 142° |
| 2026-05-07 12:55 | 47.69401 | 12.45525 | 23014 ft | 459 kts | 142° |
| 2026-05-07 12:56 | 47.66932 | 12.48562 | 23654 ft | 462 kts | 142° |
| 2026-05-07 12:56 | 47.64449 | 12.51612 | 24194 ft | 465 kts | 142° |
| 2026-05-07 12:56 | 47.61976 | 12.54729 | 24698 ft | 468 kts | 140° |
| 2026-05-07 12:56 | 47.59566 | 12.57997 | 25210 ft | 471 kts | 140° |
| 2026-05-07 12:57 | 47.57154 | 12.61198 | 25695 ft | 473 kts | 141° |
| 2026-05-07 12:57 | 47.54696 | 12.64455 | 26193 ft | 475 kts | 141° |
| 2026-05-07 12:57 | 47.52236 | 12.67747 | 26695 ft | 478 kts | 141° |
| 2026-05-07 12:57 | 47.49767 | 12.71052 | 27180 ft | 480 kts | 141° |
| 2026-05-07 12:58 | 47.47278 | 12.74361 | 27676 ft | 482 kts | 141° |
| 2026-05-07 12:58 | 47.44776 | 12.77676 | 28205 ft | 484 kts | 141° |
| 2026-05-07 12:58 | 47.42267 | 12.81005 | 28675 ft | 486 kts | 141° |
| 2026-05-07 12:58 | 47.39756 | 12.84339 | 29395 ft | 484 kts | 142° |
| 2026-05-07 12:59 | 47.37258 | 12.87648 | 30173 ft | 480 kts | 142° |
| 2026-05-07 12:59 | 47.34772 | 12.90931 | 30787 ft | 478 kts | 142° |
| 2026-05-07 12:59 | 47.32290 | 12.94203 | 31310 ft | 478 kts | 142° |
| 2026-05-07 12:59 | 47.29807 | 12.97476 | 31851 ft | 479 kts | 142° |
| 2026-05-07 13:00 | 47.27319 | 13.00755 | 32365 ft | 480 kts | 142° |
| 2026-05-07 13:00 | 47.24823 | 13.04035 | 32845 ft | 481 kts | 143° |
| 2026-05-07 13:00 | 47.22324 | 13.07317 | 33375 ft | 482 kts | 143° |
| 2026-05-07 13:00 | 47.19824 | 13.10593 | 33899 ft | 483 kts | 143° |
| 2026-05-07 13:01 | 47.17314 | 13.13881 | 34374 ft | 484 kts | 143° |
| 2026-05-07 13:01 | 47.14798 | 13.17173 | 34850 ft | 484 kts | 143° |
| 2026-05-07 13:01 | 47.12291 | 13.20448 | 35353 ft | 485 kts | 143° |
| 2026-05-07 13:01 | 47.09767 | 13.23739 | 35852 ft | 485 kts | 143° |
| 2026-05-07 13:02 | 47.07243 | 13.27027 | 36310 ft | 486 kts | 143° |
| 2026-05-07 13:02 | 47.04717 | 13.30314 | 36787 ft | 486 kts | 143° |
| 2026-05-07 13:02 | 47.02186 | 13.33601 | 37241 ft | 487 kts | 143° |
| 2026-05-07 13:02 | 46.99647 | 13.36894 | 37633 ft | 488 kts | 143° |
| 2026-05-07 13:03 | 46.97105 | 13.40189 | 38087 ft | 489 kts | 143° |
| 2026-05-07 13:03 | 46.94558 | 13.43486 | 38536 ft | 489 kts | 143° |
| 2026-05-07 13:03 | 46.92009 | 13.46780 | 38911 ft | 489 kts | 143° |
| 2026-05-07 13:03 | 46.89454 | 13.50076 | 39253 ft | 490 kts | 143° |
| 2026-05-07 13:04 | 46.86900 | 13.53370 | 39607 ft | 490 kts | 143° |
| 2026-05-07 13:04 | 46.84341 | 13.56665 | 39947 ft | 490 kts | 143° |
| 2026-05-07 13:04 | 46.81813 | 13.59913 | 40280 ft | 491 kts | 143° |
| 2026-05-07 13:04 | 46.79251 | 13.63203 | 40625 ft | 491 kts | 143° |
| 2026-05-07 13:05 | 46.76683 | 13.66495 | 40918 ft | 492 kts | 143° |
| 2026-05-07 13:05 | 46.74104 | 13.69797 | 40928 ft | 493 kts | 143° |
| 2026-05-07 13:05 | 46.68967 | 13.76365 | 40940 ft | 490 kts | 143° |
| 2026-05-07 13:06 | 46.63843 | 13.82893 | 40939 ft | 490 kts | 143° |
| 2026-05-07 13:06 | 46.58714 | 13.89418 | 40937 ft | 490 kts | 142° |
| 2026-05-07 13:07 | 46.53812 | 13.96360 | 40940 ft | 493 kts | 140° |
| 2026-05-07 13:07 | 46.48886 | 14.03333 | 40941 ft | 494 kts | 140° |
| 2026-05-07 13:08 | 46.43978 | 14.10293 | 40937 ft | 492 kts | 140° |
| 2026-05-07 13:08 | 46.39071 | 14.17211 | 40960 ft | 492 kts | 140° |
| 2026-05-07 13:09 | 46.34159 | 14.24132 | 40958 ft | 492 kts | 140° |
| 2026-05-07 13:09 | 46.29245 | 14.31030 | 40959 ft | 492 kts | 140° |
| 2026-05-07 13:10 | 46.24324 | 14.37923 | 40960 ft | 492 kts | 140° |
| 2026-05-07 13:10 | 46.19431 | 14.44758 | 40961 ft | 492 kts | 140° |
| 2026-05-07 13:11 | 46.14508 | 14.51617 | 40958 ft | 492 kts | 140° |
| 2026-05-07 13:11 | 46.09580 | 14.58464 | 40962 ft | 492 kts | 140° |
| 2026-05-07 13:12 | 46.04648 | 14.65299 | 40963 ft | 492 kts | 141° |
| 2026-05-07 13:12 | 45.99714 | 14.72120 | 40967 ft | 492 kts | 141° |
| 2026-05-07 13:13 | 45.94768 | 14.78939 | 40966 ft | 493 kts | 141° |
| 2026-05-07 13:13 | 45.89820 | 14.85743 | 40963 ft | 493 kts | 141° |
| 2026-05-07 13:14 | 45.86373 | 14.90473 | 40970 ft | 493 kts | 141° |
| 2026-05-07 13:14 | 45.83435 | 14.94497 | 40976 ft | 492 kts | 141° |
| 2026-05-07 13:15 | 45.78478 | 15.01273 | 40968 ft | 492 kts | 141° |
| 2026-05-07 13:15 | 45.73613 | 15.07907 | 40974 ft | 492 kts | 141° |
| 2026-05-07 13:16 | 45.68655 | 15.14651 | 40981 ft | 492 kts | 141° |
| 2026-05-07 13:16 | 45.65255 | 15.19264 | 40987 ft | 492 kts | 141° |
| 2026-05-07 13:17 | 45.60283 | 15.25996 | 40974 ft | 495 kts | 141° |
| 2026-05-07 13:17 | 45.55129 | 15.32659 | 40989 ft | 502 kts | 144° |
| 2026-05-07 13:18 | 45.51126 | 15.37595 | 40986 ft | 503 kts | 143° |
| 2026-05-07 13:18 | 45.48281 | 15.41101 | 40981 ft | 503 kts | 144° |
| 2026-05-07 13:19 | 45.44428 | 15.45801 | 40978 ft | 504 kts | 144° |
| 2026-05-07 13:19 | 45.39115 | 15.52298 | 40969 ft | 503 kts | 144° |
| 2026-05-07 13:20 | 45.33793 | 15.58783 | 40982 ft | 503 kts | 144° |
| 2026-05-07 13:20 | 45.28466 | 15.65258 | 40979 ft | 503 kts | 144° |
| 2026-05-07 13:21 | 45.23144 | 15.71711 | 40979 ft | 504 kts | 144° |
| 2026-05-07 13:21 | 45.17810 | 15.78162 | 40987 ft | 504 kts | 144° |
| 2026-05-07 13:22 | 45.12467 | 15.84609 | 40986 ft | 505 kts | 144° |
| 2026-05-07 13:22 | 45.07116 | 15.91046 | 40989 ft | 505 kts | 144° |
| 2026-05-07 13:23 | 45.01761 | 15.97473 | 40993 ft | 504 kts | 144° |
| 2026-05-07 13:23 | 44.96403 | 16.03886 | 40996 ft | 505 kts | 144° |
| 2026-05-07 13:24 | 44.91041 | 16.10290 | 41003 ft | 505 kts | 144° |
| 2026-05-07 13:24 | 44.85706 | 16.16645 | 41021 ft | 505 kts | 144° |
| 2026-05-07 13:25 | 44.80328 | 16.23033 | 41013 ft | 506 kts | 144° |
| 2026-05-07 13:25 | 44.74946 | 16.29412 | 41016 ft | 506 kts | 144° |
| 2026-05-07 13:26 | 44.69562 | 16.35776 | 41018 ft | 506 kts | 144° |
| 2026-05-07 13:26 | 44.64169 | 16.42135 | 41020 ft | 506 kts | 144° |
| 2026-05-07 13:27 | 44.58773 | 16.48482 | 41022 ft | 506 kts | 144° |
| 2026-05-07 13:27 | 44.53372 | 16.54817 | 41022 ft | 506 kts | 144° |
| 2026-05-07 13:28 | 44.47966 | 16.61145 | 41022 ft | 506 kts | 144° |
| 2026-05-07 13:28 | 44.42629 | 16.67376 | 41024 ft | 505 kts | 144° |
| 2026-05-07 13:29 | 44.37232 | 16.73660 | 41030 ft | 505 kts | 144° |
| 2026-05-07 13:29 | 44.31825 | 16.79941 | 41036 ft | 505 kts | 144° |
| 2026-05-07 13:30 | 44.26435 | 16.86229 | 41035 ft | 506 kts | 144° |
| 2026-05-07 13:30 | 44.21090 | 16.92523 | 41041 ft | 506 kts | 144° |
| 2026-05-07 13:31 | 44.15713 | 16.98786 | 41049 ft | 506 kts | 144° |
| 2026-05-07 13:31 | 44.10346 | 17.05057 | 41059 ft | 507 kts | 144° |
| 2026-05-07 13:32 | 44.04976 | 17.11294 | 41066 ft | 507 kts | 144° |
| 2026-05-07 13:32 | 43.99560 | 17.17582 | 41064 ft | 508 kts | 144° |
| 2026-05-07 13:33 | 43.94130 | 17.23864 | 41067 ft | 508 kts | 144° |
| 2026-05-07 13:33 | 43.89583 | 17.29114 | 41074 ft | 508 kts | 144° |
| 2026-05-07 13:34 | 43.81454 | 17.38474 | 41076 ft | 509 kts | 144° |
| 2026-05-07 13:35 | 43.76002 | 17.44732 | 41078 ft | 509 kts | 144° |
| 2026-05-07 13:35 | 43.70545 | 17.50981 | 41082 ft | 509 kts | 144° |
| 2026-05-07 13:36 | 43.65091 | 17.57211 | 41085 ft | 510 kts | 144° |
| 2026-05-07 13:36 | 43.59691 | 17.63365 | 41083 ft | 510 kts | 144° |
| 2026-05-07 13:37 | 43.54209 | 17.69595 | 41088 ft | 510 kts | 144° |
| 2026-05-07 13:37 | 43.48735 | 17.75804 | 41091 ft | 510 kts | 144° |
| 2026-05-07 13:38 | 43.43256 | 17.82001 | 41080 ft | 509 kts | 144° |
| 2026-05-07 13:38 | 43.37774 | 17.88188 | 41090 ft | 510 kts | 144° |
| 2026-05-07 13:39 | 43.32289 | 17.94363 | 41104 ft | 510 kts | 144° |
| 2026-05-07 13:39 | 43.26805 | 18.00521 | 41098 ft | 509 kts | 144° |
| 2026-05-07 13:40 | 43.21320 | 18.06667 | 41098 ft | 509 kts | 145° |
| 2026-05-07 13:40 | 43.15830 | 18.12803 | 41095 ft | 509 kts | 145° |
| 2026-05-07 13:41 | 43.10333 | 18.18933 | 41087 ft | 510 kts | 145° |
| 2026-05-07 13:41 | 43.04835 | 18.25048 | 41086 ft | 509 kts | 145° |
| 2026-05-07 13:42 | 42.99328 | 18.31159 | 41082 ft | 510 kts | 145° |
| 2026-05-07 13:42 | 42.93816 | 18.37261 | 41081 ft | 510 kts | 145° |
| 2026-05-07 13:43 | 42.88296 | 18.43358 | 41089 ft | 510 kts | 145° |
| 2026-05-07 13:43 | 42.82770 | 18.49446 | 41081 ft | 510 kts | 145° |
| 2026-05-07 13:44 | 42.77245 | 18.55519 | 41088 ft | 511 kts | 145° |
| 2026-05-07 13:44 | 42.71704 | 18.61596 | 41083 ft | 511 kts | 145° |
| 2026-05-07 13:45 | 42.66159 | 18.67662 | 41075 ft | 512 kts | 145° |
| 2026-05-07 13:45 | 42.62107 | 18.72086 | 41074 ft | 512 kts | 145° |